createdAt,value
2023-05-12T00:02:17.755Z,100.00
2023-05-12T00:05:00.853Z,100.00
2023-05-12T00:10:26.636Z,100.00
2023-05-12T00:13:00.650Z,100.00
2023-05-12T00:15:43.730Z,100.00
2023-05-12T00:21:33.044Z,100.00
2023-05-12T00:25:01.002Z,100.00
2023-05-12T00:27:44.358Z,100.00
2023-05-12T00:30:28.843Z,100.00
2023-05-12T00:33:05.317Z,100.00
2023-05-12T00:35:43.653Z,100.00
2023-05-12T00:41:20.055Z,100.00
2023-05-12T00:44:07.534Z,100.00
2023-05-12T00:46:40.776Z,100.00
2023-05-12T00:49:56.081Z,100.00
2023-05-12T00:52:34.710Z,100.00
2023-05-12T00:55:31.559Z,100.00
2023-05-12T00:58:20.371Z,100.00
2023-05-12T01:03:34.868Z,100.00
2023-05-12T01:06:16.632Z,100.00
2023-05-12T01:08:59.387Z,100.00
2023-05-12T01:11:32.531Z,100.00
2023-05-12T01:14:02.790Z,100.00
2023-05-12T01:16:59.037Z,100.00
2023-05-12T01:19:50.259Z,100.00
2023-05-12T01:22:22.135Z,100.00
2023-05-12T01:25:00.568Z,100.00
2023-05-12T01:27:49.277Z,100.00
2023-05-12T01:30:26.235Z,100.00
2023-05-12T01:32:57.550Z,100.00
2023-05-12T01:35:32.242Z,100.00
2023-05-12T01:38:04.584Z,100.00
2023-05-12T01:40:56.175Z,100.00
2023-05-12T01:46:40.536Z,100.00
2023-05-12T01:49:34.096Z,100.00
2023-05-12T01:55:00.319Z,100.00
2023-05-12T01:57:33.597Z,100.00
2023-05-12T02:00:15.628Z,100.00
2023-05-12T02:02:45.064Z,100.00
2023-05-12T02:05:16.006Z,100.00
2023-05-12T02:07:48.967Z,100.00
2023-05-12T02:10:16.660Z,100.00
2023-05-12T02:12:50.066Z,100.00
2023-05-12T02:15:21.337Z,100.00
2023-05-12T02:17:50.526Z,100.00
2023-05-12T02:20:29.426Z,100.00
2023-05-12T02:23:03.172Z,100.00
2023-05-12T02:25:34.158Z,100.00
2023-05-12T02:28:18.824Z,100.00
2023-05-12T02:31:13.078Z,100.00
2023-05-12T02:33:46.900Z,100.00
2023-05-12T02:36:44.685Z,100.00
2023-05-12T02:45:16.440Z,100.00
2023-05-12T02:47:47.089Z,100.00
2023-05-12T02:50:23.283Z,100.00
2023-05-12T02:52:55.274Z,100.00
2023-05-12T02:58:40.202Z,100.00
2023-05-12T03:01:18.720Z,100.00
2023-05-12T03:04:03.762Z,100.00
2023-05-12T03:06:45.016Z,100.00
2023-05-12T03:09:13.522Z,100.00
2023-05-12T03:12:21.572Z,100.00
2023-05-12T03:14:48.354Z,100.00
2023-05-12T03:19:03.156Z,100.00
2023-05-12T03:23:36.957Z,100.00
2023-05-12T03:26:08.931Z,100.00
2023-05-12T03:28:39.246Z,100.00
2023-05-12T03:31:06.261Z,100.00
2023-05-12T03:33:33.707Z,100.00
2023-05-12T03:36:00.814Z,100.00
2023-05-12T03:38:30.782Z,100.00
2023-05-12T03:41:06.891Z,100.00
2023-05-12T03:43:40.207Z,100.00
2023-05-12T03:46:07.350Z,100.00
2023-05-12T03:48:34.737Z,100.00
2023-05-12T03:51:01.797Z,100.00
2023-05-12T03:53:31.916Z,100.00
2023-05-12T03:55:58.824Z,100.00
2023-05-12T03:58:34.301Z,100.00
2023-05-12T04:01:13.454Z,100.00
2023-05-12T04:03:45.923Z,100.00
2023-05-12T04:06:16.346Z,100.00
2023-05-12T04:08:58.930Z,100.00
2023-05-12T04:11:43.866Z,100.00
2023-05-12T04:20:33.044Z,100.00
2023-05-12T04:23:00.694Z,100.00
2023-05-12T04:25:27.874Z,100.00
2023-05-12T04:28:05.098Z,100.00
2023-05-12T04:30:50.824Z,100.00
2023-05-12T04:33:18.101Z,100.00
2023-05-12T04:35:45.873Z,100.00
2023-05-12T04:38:21.216Z,100.00
2023-05-12T04:40:48.446Z,100.00
2023-05-12T04:45:46.472Z,100.00
2023-05-12T04:48:13.303Z,100.00
2023-05-12T04:50:41.479Z,100.00
2023-05-12T04:53:08.600Z,100.00
2023-05-12T04:55:36.792Z,100.00
2023-05-12T04:58:16.233Z,100.00
2023-05-12T05:00:43.502Z,100.00
2023-05-12T05:03:20.145Z,100.00
2023-05-12T05:05:47.097Z,100.00
2023-05-12T05:08:24.449Z,100.00
2023-05-12T05:10:51.210Z,100.00
2023-05-12T05:13:53.079Z,100.00
2023-05-12T05:16:23.518Z,100.00
2023-05-12T05:18:52.930Z,100.00
2023-05-12T05:21:31.370Z,100.00
2023-05-12T05:23:58.038Z,100.00
2023-05-12T05:26:33.831Z,100.00
2023-05-12T05:29:00.664Z,100.00
2023-05-12T05:31:29.033Z,100.00
2023-05-12T05:34:06.275Z,100.00
2023-05-12T05:36:37.862Z,100.00
2023-05-12T05:39:10.568Z,100.00
2023-05-12T05:41:39.589Z,100.00
2023-05-12T05:44:09.330Z,100.00
2023-05-12T05:49:24.727Z,100.00
2023-05-12T05:51:56.379Z,100.00
2023-05-12T05:54:28.368Z,100.00
2023-05-12T05:57:23.929Z,100.00
2023-05-12T05:59:54.310Z,100.00
2023-05-12T06:02:24.914Z,100.00
2023-05-12T06:11:20.819Z,100.00
2023-05-12T06:14:00.430Z,100.00
2023-05-12T06:16:29.381Z,100.00
2023-05-12T06:19:26.063Z,100.00
2023-05-12T06:21:59.060Z,100.00
2023-05-12T06:24:25.865Z,100.00
2023-05-12T06:27:01.881Z,100.00
2023-05-12T06:29:28.608Z,100.00
2023-05-12T06:32:04.105Z,100.00
2023-05-12T06:34:30.972Z,100.00
2023-05-12T06:36:58.009Z,100.00
2023-05-12T06:39:27.856Z,100.00
2023-05-12T06:42:19.630Z,100.00
2023-05-12T06:44:53.727Z,100.00
2023-05-12T06:47:31.501Z,100.00
2023-05-12T06:49:58.408Z,100.00
2023-05-12T06:52:29.165Z,100.00
2023-05-12T06:54:59.025Z,100.00
2023-05-12T06:57:29.846Z,100.00
2023-05-12T06:59:58.641Z,100.00
2023-05-12T07:02:33.018Z,100.00
2023-05-12T07:04:59.777Z,100.00
2023-05-12T07:07:26.493Z,100.00
2023-05-12T07:10:00.458Z,100.00
2023-05-12T07:12:27.231Z,100.00
2023-05-12T07:14:53.909Z,100.00
2023-05-12T07:17:21.691Z,100.00
2023-05-12T07:19:48.606Z,100.00
2023-05-12T07:22:23.616Z,100.00
2023-05-12T07:24:51.757Z,100.00
2023-05-12T07:27:18.543Z,100.00
2023-05-12T07:29:54.925Z,100.00
2023-05-12T07:32:24.424Z,100.00
2023-05-12T07:34:53.287Z,100.00
2023-05-12T07:37:23.176Z,100.00
2023-05-12T07:39:49.944Z,100.00
2023-05-12T07:42:21.953Z,100.00
2023-05-12T07:44:56.540Z,100.00
2023-05-12T07:47:29.457Z,100.00
2023-05-12T07:50:26.328Z,100.00
2023-05-12T07:52:54.057Z,100.00
2023-05-12T07:55:22.176Z,100.00
2023-05-12T07:57:55.407Z,100.00
2023-05-12T08:00:22.310Z,100.00
2023-05-12T08:02:56.899Z,100.00
2023-05-12T08:05:26.492Z,100.00
2023-05-12T08:08:18.097Z,100.00
2023-05-12T08:10:52.523Z,100.00
2023-05-12T08:13:20.473Z,100.00
2023-05-12T08:15:48.317Z,100.00
2023-05-12T08:18:24.882Z,100.00
2023-05-12T08:20:51.801Z,100.00
2023-05-12T08:24:31.604Z,100.00
2023-05-12T08:26:58.530Z,100.00
2023-05-12T08:29:28.525Z,100.00
2023-05-12T08:32:04.959Z,100.00
2023-05-12T08:34:49.352Z,100.00
2023-05-12T08:37:19.429Z,100.00
2023-05-12T08:39:46.522Z,100.00
2023-05-12T08:42:21.895Z,100.00
2023-05-12T08:45:02.214Z,100.00
2023-05-12T08:47:35.262Z,100.00
2023-05-12T08:50:03.672Z,100.00
2023-05-12T08:52:34.731Z,100.00
2023-05-12T08:55:15.534Z,100.00
2023-05-12T08:58:14.531Z,100.00
2023-05-12T09:00:48.035Z,100.00
2023-05-12T09:03:42.220Z,100.00
2023-05-12T09:06:17.822Z,100.00
2023-05-12T09:08:48.036Z,100.00
2023-05-12T09:11:24.428Z,100.00
2023-05-12T09:14:04.683Z,100.00
2023-05-12T09:16:34.782Z,100.00
2023-05-12T09:19:13.702Z,100.00
2023-05-12T09:22:14.918Z,100.00
2023-05-12T09:24:41.954Z,100.00
2023-05-12T09:27:11.521Z,100.00
2023-05-12T09:29:58.539Z,100.00
2023-05-12T09:32:33.675Z,100.00
2023-05-12T09:35:15.364Z,100.00
2023-05-12T09:37:47.307Z,100.00
2023-05-12T09:40:42.941Z,100.00
2023-05-12T09:43:15.368Z,100.00
2023-05-12T09:45:55.270Z,100.00
2023-05-12T09:51:31.506Z,100.00
2023-05-12T09:54:30.631Z,100.00
2023-05-12T09:57:03.734Z,100.00
2023-05-12T09:59:40.979Z,100.00
2023-05-12T10:03:15.986Z,100.00
2023-05-12T10:05:49.362Z,100.00
2023-05-12T10:08:41.943Z,100.00
2023-05-12T10:11:09.128Z,100.00
2023-05-12T10:14:01.981Z,100.00
2023-05-12T10:16:48.111Z,100.00
2023-05-12T10:19:30.807Z,100.00
2023-05-12T10:23:12.684Z,100.00
2023-05-12T10:25:41.565Z,100.00
2023-05-12T10:28:14.542Z,100.00
2023-05-12T10:30:43.194Z,100.00
2023-05-12T10:33:11.749Z,100.00
2023-05-12T10:36:09.611Z,100.00
2023-05-12T10:42:49.907Z,100.00
2023-05-12T10:45:20.656Z,100.00
2023-05-12T10:47:47.983Z,100.00
2023-05-12T10:50:30.747Z,100.00
2023-05-12T10:53:00.114Z,100.00
2023-05-12T10:55:43.286Z,100.00
2023-05-12T10:58:16.264Z,100.00
2023-05-12T11:01:00.321Z,100.00
2023-05-12T11:03:56.300Z,100.00
2023-05-12T11:07:09.789Z,100.00
2023-05-12T11:09:47.093Z,100.00
2023-05-12T11:12:23.554Z,100.00
2023-05-12T11:14:55.869Z,100.00
2023-05-12T11:17:26.177Z,100.00
2023-05-12T11:20:20.442Z,100.00
2023-05-12T11:22:54.345Z,100.00
2023-05-12T11:25:21.318Z,100.00
2023-05-12T11:27:50.726Z,100.00
2023-05-12T11:30:53.318Z,100.00
2023-05-12T11:33:51.868Z,100.00
2023-05-12T11:36:31.055Z,100.00
2023-05-12T11:39:00.375Z,100.00
2023-05-12T11:41:33.032Z,100.00
2023-05-12T11:44:29.169Z,100.00
2023-05-12T11:47:13.284Z,100.00
2023-05-12T11:50:01.095Z,100.00
2023-05-12T11:52:30.265Z,100.00
2023-05-12T11:55:01.025Z,100.00
2023-05-12T11:57:33.001Z,100.00
2023-05-12T12:00:27.883Z,100.00
2023-05-12T12:03:14.600Z,100.00
2023-05-12T12:06:09.958Z,100.00
2023-05-12T12:08:56.816Z,100.00
2023-05-12T12:11:28.161Z,100.00
2023-05-12T12:13:59.223Z,100.00
2023-05-12T12:17:05.948Z,100.00
2023-05-12T12:19:41.978Z,100.00
2023-05-12T12:22:36.212Z,100.00
2023-05-12T12:25:03.877Z,100.00
2023-05-12T12:27:35.330Z,100.00
2023-05-12T12:33:18.695Z,100.00
2023-05-12T12:38:54.534Z,100.00
2023-05-12T12:44:17.677Z,100.00
2023-05-12T12:46:44.408Z,100.00
2023-05-12T12:53:25.216Z,100.00
2023-05-12T12:55:52.196Z,100.00
2023-05-12T12:58:50.385Z,100.00
2023-05-12T13:05:25.508Z,100.00
2023-05-12T13:16:21.249Z,100.00
2023-05-12T13:18:48.061Z,100.00
2023-05-12T13:22:17.828Z,100.00
2023-05-12T13:24:48.362Z,100.00
2023-05-12T13:28:02.711Z,100.00
2023-05-12T13:36:15.890Z,100.00
2023-05-12T13:39:36.577Z,100.00
2023-05-12T13:42:28.391Z,100.00
2023-05-12T13:45:04.453Z,100.00
2023-05-12T13:47:34.214Z,100.00
2023-05-12T13:53:19.351Z,100.00
2023-05-12T13:55:46.142Z,100.00
2023-05-12T13:58:15.645Z,100.00
2023-05-12T14:12:21.661Z,100.00
2023-05-12T14:24:13.550Z,100.00
2023-05-12T14:27:02.182Z,100.00
2023-05-12T14:29:28.986Z,100.00
2023-05-12T14:32:27.413Z,100.00
2023-05-12T14:43:21.066Z,100.00
2023-05-12T14:46:01.715Z,100.00
2023-05-12T14:48:59.197Z,100.00
2023-05-12T14:52:03.690Z,100.00
2023-05-12T14:54:33.385Z,100.00
2023-05-12T14:57:52.338Z,100.00
2023-05-12T15:00:21.208Z,100.00
2023-05-12T15:02:59.548Z,100.00
2023-05-12T15:05:41.132Z,100.00
2023-05-12T15:08:13.503Z,100.00
2023-05-12T15:13:55.708Z,100.00
2023-05-12T15:16:28.169Z,100.00
2023-05-12T15:18:59.576Z,100.00
2023-05-12T15:21:26.460Z,100.00
2023-05-12T15:23:53.237Z,100.00
2023-05-12T15:26:32.677Z,100.00
2023-05-12T15:29:08.541Z,100.00
2023-05-12T15:31:42.489Z,100.00
2023-05-12T15:37:20.559Z,100.00
2023-05-12T15:39:53.178Z,100.00
2023-05-12T15:42:26.295Z,100.00
2023-05-12T15:45:01.514Z,100.00
2023-05-12T15:47:32.651Z,100.00
2023-05-12T15:50:10.536Z,100.00
2023-05-12T15:52:50.239Z,100.00
2023-05-12T15:55:19.753Z,100.00
2023-05-12T15:57:55.572Z,100.00
2023-05-12T16:00:22.756Z,100.00
2023-05-12T16:02:49.940Z,100.00
2023-05-12T16:05:20.488Z,100.00
2023-05-12T16:15:33.722Z,94.95
2023-05-12T16:18:00.435Z,95.92
2023-05-12T16:20:27.341Z,100.00
2023-05-12T16:22:57.178Z,98.61
2023-05-12T16:25:23.986Z,95.04
2023-05-12T16:27:50.673Z,98.20
2023-05-12T16:30:42.796Z,100.00
2023-05-12T16:33:12.957Z,100.00
2023-05-12T16:35:51.449Z,100.00
2023-05-12T16:38:19.084Z,100.00
2023-05-12T16:40:45.948Z,92.17
2023-05-12T16:43:21.616Z,98.56
2023-05-12T16:46:12.248Z,94.40
2023-05-12T16:48:39.422Z,91.67
2023-05-12T16:51:10.501Z,94.63
2023-05-12T16:53:41.081Z,95.33
2023-05-12T16:56:08.121Z,98.97
2023-05-12T16:58:37.708Z,99.62
2023-05-12T17:01:31.690Z,100.00
2023-05-12T17:03:58.621Z,100.00
2023-05-12T17:06:25.454Z,100.00
2023-05-12T17:08:52.147Z,100.00
2023-05-12T17:11:18.926Z,100.00
2023-05-12T17:13:45.835Z,100.00
2023-05-12T17:16:13.227Z,100.00
2023-05-12T17:21:11.856Z,100.00
2023-05-12T17:23:41.497Z,100.00
2023-05-12T17:26:08.144Z,100.00
2023-05-12T17:28:37.943Z,100.00
2023-05-12T17:31:12.432Z,100.00
2023-05-12T17:33:39.168Z,100.00
2023-05-12T17:36:12.950Z,100.00
2023-05-12T17:38:43.917Z,100.00
2023-05-12T17:41:10.833Z,100.00
2023-05-12T17:43:37.531Z,100.00
2023-05-12T17:46:06.949Z,100.00
2023-05-12T17:48:40.662Z,100.00
2023-05-12T17:51:09.924Z,100.00
2023-05-12T17:56:28.726Z,100.00
2023-05-12T17:58:55.585Z,100.00
2023-05-12T18:01:22.335Z,100.00
2023-05-12T18:03:49.026Z,100.00
2023-05-12T18:06:15.954Z,100.00
2023-05-12T18:08:46.676Z,100.00
2023-05-12T18:11:13.497Z,100.00
2023-05-12T18:13:40.194Z,100.00
2023-05-12T18:16:29.095Z,100.00
2023-05-12T18:19:04.123Z,100.00
2023-05-12T18:21:30.978Z,100.00
2023-05-12T18:23:57.656Z,100.00
2023-05-12T18:26:35.172Z,100.00
2023-05-12T18:29:01.921Z,100.00
2023-05-12T18:31:28.881Z,100.00
2023-05-12T18:34:05.632Z,100.00
2023-05-12T18:36:35.009Z,100.00
2023-05-12T18:39:01.755Z,100.00
2023-05-12T18:41:36.045Z,100.00
2023-05-12T18:44:02.963Z,100.00
2023-05-12T18:46:33.419Z,100.00
2023-05-12T18:49:02.902Z,100.00
2023-05-12T18:51:31.730Z,100.00
2023-05-12T18:53:58.468Z,100.00
2023-05-12T18:56:25.717Z,100.00
2023-05-12T18:58:52.517Z,100.00
2023-05-12T19:01:25.381Z,100.00
2023-05-12T19:04:37.454Z,100.00
2023-05-12T19:07:13.587Z,100.00
2023-05-12T19:09:40.528Z,100.00
2023-05-12T19:12:11.605Z,100.00
2023-05-12T19:14:47.561Z,100.00
2023-05-12T19:17:14.466Z,100.00
2023-05-12T19:19:41.282Z,100.00
2023-05-12T19:22:08.244Z,100.00
2023-05-12T19:24:37.786Z,100.00
2023-05-12T19:27:04.589Z,100.00
2023-05-12T19:29:31.288Z,100.00
2023-05-12T19:32:11.152Z,100.00
2023-05-12T19:34:38.009Z,100.00
2023-05-12T19:37:05.741Z,100.00
2023-05-12T19:39:32.658Z,100.00
2023-05-12T19:41:59.441Z,100.00
2023-05-12T19:44:27.012Z,100.00
2023-05-12T19:46:55.452Z,100.00
2023-05-12T19:49:22.253Z,100.00
2023-05-12T19:51:48.934Z,100.00
2023-05-12T19:54:16.143Z,100.00
2023-05-12T19:56:43.029Z,100.00
2023-05-12T19:59:09.756Z,100.00
2023-05-12T20:01:36.514Z,100.00
2023-05-12T20:04:03.175Z,100.00
2023-05-12T20:06:30.908Z,100.00
2023-05-12T20:08:59.446Z,100.00
2023-05-12T20:11:27.172Z,100.00
2023-05-12T20:13:53.937Z,100.00
2023-05-12T20:16:21.275Z,100.00
2023-05-12T20:18:48.051Z,100.00
2023-05-12T20:21:16.964Z,100.00
2023-05-12T20:23:43.756Z,100.00
2023-05-12T20:26:10.697Z,100.00
2023-05-12T20:28:37.561Z,100.00
2023-05-12T20:31:09.653Z,100.00
2023-05-12T20:33:46.529Z,100.00
2023-05-12T20:36:40.771Z,100.00
2023-05-12T20:40:18.201Z,100.00
2023-05-12T20:42:49.098Z,100.00
2023-05-12T20:45:17.340Z,100.00
2023-05-12T20:47:49.540Z,100.00
2023-05-12T20:50:17.030Z,100.00
2023-05-12T20:52:47.519Z,100.00
2023-05-12T20:55:46.906Z,100.00
2023-05-12T21:03:40.998Z,100.00
2023-05-12T21:06:30.136Z,100.00
2023-05-12T21:08:57.058Z,100.00
2023-05-12T21:12:11.603Z,100.00
2023-05-12T21:14:45.681Z,100.00
2023-05-12T21:17:32.578Z,100.00
2023-05-12T21:21:31.707Z,100.00
2023-05-12T21:24:11.518Z,100.00
2023-05-12T21:26:41.148Z,100.00
2023-05-12T21:29:13.128Z,100.00
2023-05-12T21:31:42.779Z,100.00
2023-05-12T21:34:12.231Z,100.00
2023-05-12T21:36:39.035Z,100.00
2023-05-12T21:42:04.572Z,100.00
2023-05-12T21:44:31.638Z,100.00
2023-05-12T21:47:01.071Z,100.00
2023-05-12T21:49:27.801Z,100.00
2023-05-12T21:51:55.525Z,100.00
2023-05-12T21:54:36.369Z,100.00
2023-05-12T21:57:06.060Z,100.00
2023-05-12T21:59:32.790Z,100.00
2023-05-12T22:02:00.232Z,100.00
2023-05-12T22:04:27.087Z,100.00
2023-05-12T22:06:53.841Z,100.00
2023-05-12T22:09:21.514Z,100.00
2023-05-12T22:11:48.384Z,100.00
2023-05-12T22:14:15.107Z,100.00
2023-05-12T22:16:42.750Z,100.00
2023-05-12T22:19:10.156Z,100.00
2023-05-12T22:21:37.016Z,100.00
2023-05-12T22:24:03.920Z,100.00
2023-05-12T22:26:30.765Z,100.00
2023-05-12T22:28:57.964Z,100.00
2023-05-12T22:31:25.916Z,100.00
2023-05-12T22:33:52.658Z,100.00
2023-05-12T22:36:19.401Z,100.00
2023-05-12T22:38:46.043Z,100.00
2023-05-12T22:41:12.774Z,100.00
2023-05-12T22:43:39.452Z,100.00
2023-05-12T22:46:11.147Z,100.00
2023-05-12T22:48:39.580Z,100.00
2023-05-12T22:51:09.915Z,100.00
2023-05-12T22:53:41.778Z,100.00
2023-05-12T22:56:08.752Z,100.00
2023-05-12T22:58:37.981Z,100.00
2023-05-12T23:01:14.936Z,100.00
2023-05-12T23:03:41.840Z,100.00
2023-05-12T23:06:08.489Z,100.00
2023-05-12T23:08:48.084Z,100.00
2023-05-12T23:11:15.614Z,100.00
2023-05-12T23:13:42.406Z,100.00
2023-05-12T23:16:11.134Z,100.00
2023-05-12T23:18:37.938Z,100.00
2023-05-12T23:21:07.288Z,100.00
2023-05-12T23:23:35.516Z,100.00
2023-05-12T23:26:08.149Z,100.00
2023-05-12T23:28:43.714Z,100.00
2023-05-12T23:31:14.858Z,100.00
2023-05-12T23:33:42.231Z,100.00
2023-05-12T23:36:13.550Z,100.00
2023-05-12T23:38:40.650Z,100.00
2023-05-12T23:41:07.317Z,100.00
2023-05-12T23:43:45.430Z,100.00
2023-05-12T23:46:13.312Z,100.00
2023-05-12T23:48:40.130Z,100.00
2023-05-12T23:51:09.701Z,100.00
2023-05-12T23:53:36.318Z,100.00
2023-05-12T23:56:02.993Z,100.00
2023-05-12T23:58:29.690Z,100.00
